»·PEaware :: N520MP KPSP-KTOA

N520MP :: KPSP-KTOA

FLIGHT INFORMATION

Flight Status: Arrived
Operator: Privately registered:
United States
More flights under this callsign
Pilot: Manuel P. (9695)
Aircraft: BOMBARDIER BD-100 CHALLENGER 300
(CL30)
More flights by this aircraft type
Origin: KPSP Palm Springs Intl
United States
Destination: KTOA Zamperini
United States
More flights between these airports :: More routes between these airports
Route: +CATH1 PSP V388 DEWAY HDF KAYOH7
File this flight plan on PilotEdge
Remarks: PSPN8B TEc Route
Altitude:
(Current/Filed)
12,000ft
Speed:
(Current/Filed)
400kts
Departed: 06-Oct-17 03:06 PM
Arrived: 06-Oct-17 03:42 PM
Distance/Time
Traveled:
92nm/0:35
Distance/Time
To Go:
Arrived

Flight Plot

Page will automatically refresh every two minutes.

Flight plan parsing failed; only flown route is shown


Map Options




Map Legend


Flown Route
Filed Route
Departure Airport
Arrival Airport
Navaid (VOR, NDB)
Fix

Horizontal Profiles

Position Reports

Time Latitude Longitude Heading Altitude Ground
Speed
06-Oct-17 14:40 33.826005 -116.509990 180 484ft 0kts
06-Oct-17 14:41 33.826005 -116.509990 180 484ft 0kts
06-Oct-17 14:42 33.826005 -116.509990 180 484ft 0kts
06-Oct-17 14:43 33.826005 -116.509990 180 484ft 0kts
06-Oct-17 14:44 33.826005 -116.509990 180 484ft 0kts
06-Oct-17 14:45 33.826005 -116.509990 180 484ft 0kts
06-Oct-17 14:46 33.826005 -116.509990 180 484ft 0kts
06-Oct-17 14:47 33.826005 -116.509990 180 484ft 0kts
06-Oct-17 14:48 33.826005 -116.509990 180 484ft 0kts
06-Oct-17 14:49 33.826005 -116.509990 180 484ft 0kts
06-Oct-17 14:50 33.826005 -116.509990 180 484ft 0kts
06-Oct-17 14:51 33.826005 -116.509990 180 484ft 0kts
06-Oct-17 14:52 33.826005 -116.509990 180 484ft 0kts
06-Oct-17 14:53 33.826005 -116.509990 180 484ft 0kts
06-Oct-17 14:54 33.826005 -116.509990 180 484ft 0kts
06-Oct-17 14:55 33.826005 -116.509990 180 484ft 0kts
06-Oct-17 14:56 33.826005 -116.509990 180 484ft 0kts
06-Oct-17 14:57 33.826005 -116.509990 180 484ft 0kts
06-Oct-17 14:58 33.826005 -116.509990 180 484ft 0kts
06-Oct-17 14:59 33.826005 -116.509990 180 484ft 0kts
06-Oct-17 15:00 33.826005 -116.509990 180 484ft 0kts
06-Oct-17 15:01 33.826005 -116.509990 180 484ft 0kts
06-Oct-17 15:02 33.826005 -116.509990 180 484ft 0kts
06-Oct-17 15:03 33.826005 -116.509990 180 484ft 0kts
06-Oct-17 15:04 33.826005 -116.509990 180 484ft 0kts
06-Oct-17 15:05 33.825441 -116.508601 89 484ft 8kts
06-Oct-17 15:06 33.825314 -116.505887 112 484ft 8kts
06-Oct-17 15:07 33.823001 -116.503748 143 484ft 12kts
06-Oct-17 15:08 33.819609 -116.500739 143 483ft 15kts
06-Oct-17 15:09 33.818521 -116.498905 87 483ft 5kts
06-Oct-17 15:10 33.831892 -116.509519 321 842ft 173kts
06-Oct-17 15:11 33.874942 -116.548065 321 3583ft 215kts
06-Oct-17 15:12 33.929880 -116.567723 22 6096ft 228kts
06-Oct-17 15:13 33.922626 -116.504282 131 8713ft 256kts
06-Oct-17 15:14 33.876269 -116.432856 123 11292ft 300kts
06-Oct-17 15:15 33.878193 -116.341996 30 12089ft 301kts
06-Oct-17 15:16 33.937142 -116.382088 274 12145ft 314kts
06-Oct-17 15:17 33.941179 -116.502662 273 12051ft 380kts
06-Oct-17 15:18 33.945202 -116.628486 273 11965ft 374kts
06-Oct-17 15:19 33.939935 -116.751226 248 11977ft 382kts
06-Oct-17 15:20 33.897524 -116.869914 246 12059ft 388kts
06-Oct-17 15:21 33.852800 -116.987746 246 12266ft 387kts
06-Oct-17 15:22 33.809718 -117.099143 245 12108ft 336kts
06-Oct-17 15:23 33.776103 -117.191711 268 11938ft 271kts
06-Oct-17 15:24 33.777072 -117.277246 272 11014ft 276kts
06-Oct-17 15:25 33.778361 -117.375162 271 8618ft 290kts
06-Oct-17 15:26 33.779141 -117.458181 272 8005ft 220kts
06-Oct-17 15:27 33.779841 -117.532101 272 8013ft 221kts
06-Oct-17 15:28 33.780574 -117.607088 273 6914ft 230kts
06-Oct-17 15:29 33.805368 -117.669359 321 5988ft 215kts
06-Oct-17 15:30 33.852504 -117.717073 321 4717ft 236kts
06-Oct-17 15:31 33.903885 -117.761002 5 2989ft 206kts
06-Oct-17 15:32 33.901450 -117.719543 182 3026ft 208kts
06-Oct-17 15:33 33.841147 -117.763085 211 3016ft 273kts
06-Oct-17 15:34 33.778410 -117.812944 211 3231ft 271kts
06-Oct-17 15:35 33.716580 -117.861893 212 3986ft 262kts
06-Oct-17 15:36 33.654808 -117.908322 212 3986ft 262kts
06-Oct-17 15:37 33.599184 -117.948976 212 3976ft 210kts
06-Oct-17 15:38 33.560608 -117.994997 282 3988ft 211kts
06-Oct-17 15:39 33.603809 -118.050996 313 3989ft 247kts
06-Oct-17 15:40 33.651423 -118.113718 309 2355ft 261kts
06-Oct-17 15:41 33.696443 -118.178192 308 1989ft 255kts
06-Oct-17 15:42 33.731484 -118.230143 304 2009ft 147kts
06-Oct-17 15:43 33.752142 -118.262122 307 1666ft 119kts
06-Oct-17 15:44 33.774739 -118.295019 306 1170ft 138kts
06-Oct-17 15:45 33.797632 -118.329937 307 196ft 125kts
06-Oct-17 15:46 33.805809 -118.343650 290 110ft 7kts

Navigation Log

Ident Type
Flight plan parsing failed, navigation log unavailable